Time,TemperatureF,DewpointF,PressureIn,WindDirection,WindDirectionDegrees,WindSpeedMPH,WindSpeedGustMPH,Humidity,HourlyPrecipIn,Conditions,Clouds,dailyrainin,SoftwareType,DateUTC
2014-12-21 00:03:00,22.8,17.6,30.24,NNW,337,0.0,0.0,79,0.00,,,0.00,WUHU21623XXSP,2014-12-21 05:03:00,
2014-12-21 00:08:00,22.8,17.3,30.23,NNW,337,0.0,0.0,79,0.00,,,0.00,WUHU21623XXSP,2014-12-21 05:08:00,
2014-12-21 00:13:00,22.6,17.4,30.24,NNW,337,0.0,0.0,80,0.00,,,0.00,WUHU21623XXSP,2014-12-21 05:13:00,
2014-12-21 00:18:00,22.3,17.1,30.23,NNW,337,0.0,0.0,80,0.00,,,0.00,WUHU21623XXSP,2014-12-21 05:18:00,
2014-12-21 00:23:00,22.3,17.1,30.24,NNW,337,0.0,0.0,80,0.00,,,0.00,WUHU21623XXSP,2014-12-21 05:23:00,
2014-12-21 00:28:00,21.9,16.4,30.24,NNW,337,0.0,0.0,79,0.00,,,0.00,WUHU21623XXSP,2014-12-21 05:28:00,
2014-12-21 00:33:00,21.7,16.2,30.24,NNW,337,0.0,0.0,79,0.00,,,0.00,WUHU21623XXSP,2014-12-21 05:33:00,
2014-12-21 00:38:00,21.7,16.5,30.24,NNW,337,0.0,0.0,80,0.00,,,0.00,WUHU21623XXSP,2014-12-21 05:38:00,
2014-12-21 00:43:00,21.4,16.2,30.24,NNW,337,0.0,0.0,80,0.00,,,0.00,WUHU21623XXSP,2014-12-21 05:43:00,
2014-12-21 00:48:00,21.4,16.2,30.24,NNW,337,0.0,0.0,80,0.00,,,0.00,WUHU21623XXSP,2014-12-21 05:48:00,
2014-12-21 00:53:00,21.0,15.8,30.23,NNW,337,0.0,0.0,80,0.00,,,0.00,WUHU21623XXSP,2014-12-21 05:53:00,
2014-12-21 00:58:00,20.8,15.8,30.24,NNW,337,0.0,0.0,80,0.00,,,0.00,WUHU21623XXSP,2014-12-21 05:58:00,
2014-12-21 01:03:00,20.8,15.6,30.24,NNW,337,0.0,0.0,80,0.00,,,0.00,WUHU21623XXSP,2014-12-21 06:03:00,
2014-12-21 01:08:00,20.5,15.3,30.24,NNW,337,0.0,0.0,80,0.00,,,0.00,WUHU21623XXSP,2014-12-21 06:08:00,
2014-12-21 01:13:00,20.5,15.3,30.24,NNW,337,0.0,0.0,80,0.00,,,0.00,WUHU21623XXSP,2014-12-21 06:13:00,
2014-12-21 01:18:00,20.3,15.3,30.24,NNW,337,0.0,0.0,81,0.00,,,0.00,WUHU21623XXSP,2014-12-21 06:18:00,
2014-12-21 01:23:00,20.1,15.2,30.24,NNW,337,0.0,0.0,81,0.00,,,0.00,WUHU21623XXSP,2014-12-21 06:23:00,
2014-12-21 01:28:00,20.1,15.2,30.24,NNW,337,0.0,0.0,81,0.00,,,0.00,WUHU21623XXSP,2014-12-21 06:28:00,
2014-12-21 01:33:00,20.1,15.2,30.23,NNW,337,0.0,0.0,81,0.00,,,0.00,WUHU21623XXSP,2014-12-21 06:33:00,
2014-12-21 01:38:00,20.1,15.2,30.24,NNW,337,0.0,0.0,81,0.00,,,0.00,WUHU21623XXSP,2014-12-21 06:38:00,
2014-12-21 01:43:00,20.1,15.2,30.24,NNW,337,0.0,0.0,81,0.00,,,0.00,WUHU21623XXSP,2014-12-21 06:43:00,
2014-12-21 01:48:00,20.1,15.2,30.24,NNW,337,0.0,0.0,81,0.00,,,0.00,WUHU21623XXSP,2014-12-21 06:48:00,
2014-12-21 01:53:00,20.3,15.3,30.24,NNW,337,0.0,0.0,81,0.00,,,0.00,WUHU21623XXSP,2014-12-21 06:53:00,
2014-12-21 01:58:00,20.3,15.3,30.24,NNW,337,0.0,0.0,81,0.00,,,0.00,WUHU21623XXSP,2014-12-21 06:58:00,
2014-12-21 02:04:00,20.3,15.3,30.24,NNW,337,0.0,0.0,81,0.00,,,0.00,WUHU21623XXSP,2014-12-21 07:04:00,
2014-12-21 02:11:00,20.3,15.3,30.24,NNW,337,0.0,0.0,81,0.00,,,0.00,WUHU21623XXSP,2014-12-21 07:11:00,
2014-12-21 02:16:00,20.5,15.5,30.24,NNW,337,0.0,0.0,81,0.00,,,0.00,WUHU21623XXSP,2014-12-21 07:16:00,
2014-12-21 02:21:00,20.7,16.0,30.24,NNW,337,0.0,0.0,82,0.00,,,0.00,WUHU21623XXSP,2014-12-21 07:21:00,
2014-12-21 02:26:00,20.8,16.2,30.24,NNW,337,0.0,0.0,82,0.00,,,0.00,WUHU21623XXSP,2014-12-21 07:26:00,
2014-12-21 02:31:00,20.8,16.2,30.24,NNW,337,0.0,0.0,82,0.00,,,0.00,WUHU21623XXSP,2014-12-21 07:31:00,
2014-12-21 02:36:00,21.0,16.3,30.24,NNW,337,0.0,0.0,82,0.00,,,0.00,WUHU21623XXSP,2014-12-21 07:36:00,
2014-12-21 02:41:00,21.0,16.3,30.24,NNW,337,0.0,0.0,82,0.00,,,0.00,WUHU21623XXSP,2014-12-21 07:41:00,
2014-12-21 02:46:00,21.4,16.7,30.24,NNW,337,0.0,0.0,82,0.00,,,0.00,WUHU21623XXSP,2014-12-21 07:46:00,
2014-12-21 02:51:00,21.4,16.7,30.24,NNW,337,0.0,0.0,82,0.00,,,0.00,WUHU21623XXSP,2014-12-21 07:51:00,
2014-12-21 02:56:00,21.4,16.7,30.25,NNW,337,0.0,0.0,82,0.00,,,0.00,WUHU21623XXSP,2014-12-21 07:56:00,
2014-12-21 03:01:00,21.6,16.9,30.25,NNW,337,0.0,0.0,82,0.00,,,0.00,WUHU21623XXSP,2014-12-21 08:01:00,
2014-12-21 03:06:00,21.7,17.1,30.25,NNW,337,0.0,0.0,82,0.00,,,0.00,WUHU21623XXSP,2014-12-21 08:06:00,
2014-12-21 03:11:00,21.9,17.2,30.25,NNW,337,0.0,0.0,82,0.00,,,0.00,WUHU21623XXSP,2014-12-21 08:11:00,
2014-12-21 03:16:00,21.9,17.2,30.25,NNW,337,0.0,0.0,82,0.00,,,0.00,WUHU21623XXSP,2014-12-21 08:16:00,
2014-12-21 03:21:00,22.1,17.7,30.25,NNW,337,0.0,0.0,83,0.00,,,0.00,WUHU21623XXSP,2014-12-21 08:21:00,
2014-12-21 03:26:00,22.1,17.4,30.25,NNW,337,0.0,0.0,82,0.00,,,0.00,WUHU21623XXSP,2014-12-21 08:26:00,
2014-12-21 03:31:00,22.3,17.9,30.25,NNW,337,0.0,0.0,83,0.00,,,0.00,WUHU21623XXSP,2014-12-21 08:31:00,
2014-12-21 03:36:00,22.3,17.9,30.25,NNW,337,0.0,0.0,83,0.00,,,0.00,WUHU21623XXSP,2014-12-21 08:36:00,
2014-12-21 03:41:00,22.5,18.0,30.25,NNW,337,0.0,0.0,83,0.00,,,0.00,WUHU21623XXSP,2014-12-21 08:41:00,
2014-12-21 03:46:00,22.6,18.2,30.25,NNW,337,0.0,0.0,83,0.00,,,0.00,WUHU21623XXSP,2014-12-21 08:46:00,
2014-12-21 03:51:00,22.8,18.4,30.25,NNW,337,0.0,0.0,83,0.00,,,0.00,WUHU21623XXSP,2014-12-21 08:51:00,
2014-12-21 03:57:00,22.8,18.4,30.25,NNW,337,0.0,0.0,83,0.00,,,0.00,WUHU21623XXSP,2014-12-21 08:57:00,
2014-12-21 04:02:00,22.8,18.4,30.25,NNW,337,0.0,0.0,83,0.00,,,0.00,WUHU21623XXSP,2014-12-21 09:02:00,
2014-12-21 04:07:00,22.8,18.4,30.25,NNW,337,0.0,0.0,83,0.00,,,0.00,WUHU21623XXSP,2014-12-21 09:07:00,
2014-12-21 04:12:00,23.0,18.6,30.25,NNW,337,0.0,0.0,83,0.00,,,0.00,WUHU21623XXSP,2014-12-21 09:12:00,
2014-12-21 04:17:00,23.2,18.8,30.25,NNW,337,0.0,0.0,83,0.00,,,0.00,WUHU21623XXSP,2014-12-21 09:17:00,
2014-12-21 04:22:00,23.2,18.8,30.25,NNW,337,0.0,0.0,83,0.00,,,0.00,WUHU21623XXSP,2014-12-21 09:22:00,
2014-12-21 04:27:00,23.2,18.8,30.25,NNW,337,0.0,0.0,83,0.00,,,0.00,WUHU21623XXSP,2014-12-21 09:27:00,
2014-12-21 04:32:00,23.4,18.9,30.25,NNW,337,0.0,0.0,83,0.00,,,0.00,WUHU21623XXSP,2014-12-21 09:32:00,
2014-12-21 04:37:00,23.4,18.9,30.25,NNW,337,0.0,0.0,83,0.00,,,0.00,WUHU21623XXSP,2014-12-21 09:37:00,
2014-12-21 04:42:00,23.4,18.9,30.25,NNW,337,0.0,0.0,83,0.00,,,0.00,WUHU21623XXSP,2014-12-21 09:42:00,
2014-12-21 04:47:00,23.5,19.1,30.24,NNW,337,0.0,0.0,83,0.00,,,0.00,WUHU21623XXSP,2014-12-21 09:47:00,
2014-12-21 04:52:00,23.5,19.1,30.24,NNW,337,0.0,0.0,83,0.00,,,0.00,WUHU21623XXSP,2014-12-21 09:52:00,
2014-12-21 04:57:00,23.5,19.1,30.24,NNW,337,0.0,0.0,83,0.00,,,0.00,WUHU21623XXSP,2014-12-21 09:57:00,
2014-12-21 05:02:00,23.5,19.1,30.25,NNW,337,0.0,0.0,83,0.00,,,0.00,WUHU21623XXSP,2014-12-21 10:02:00,
2014-12-21 05:07:00,23.5,19.1,30.25,NNW,337,0.0,0.0,83,0.00,,,0.00,WUHU21623XXSP,2014-12-21 10:07:00,
2014-12-21 05:12:00,23.7,19.3,30.25,NNW,337,0.0,0.0,83,0.00,,,0.00,WUHU21623XXSP,2014-12-21 10:12:00,
2014-12-21 05:17:00,23.7,19.3,30.25,NNW,337,0.0,0.0,83,0.00,,,0.00,WUHU21623XXSP,2014-12-21 10:17:00,
2014-12-21 05:22:00,23.7,19.3,30.24,NNW,337,0.0,0.0,83,0.00,,,0.00,WUHU21623XXSP,2014-12-21 10:22:00,
2014-12-21 05:27:00,23.7,19.3,30.25,NNW,337,0.0,0.0,83,0.00,,,0.00,WUHU21623XXSP,2014-12-21 10:27:00,
2014-12-21 05:32:00,23.7,19.6,30.25,NNW,337,0.0,0.0,84,0.00,,,0.00,WUHU21623XXSP,2014-12-21 10:32:00,
2014-12-21 05:37:00,23.9,19.8,30.25,NNW,337,0.0,0.0,84,0.00,,,0.00,WUHU21623XXSP,2014-12-21 10:37:00,
2014-12-21 05:42:00,23.9,19.5,30.25,NNW,337,0.0,0.0,83,0.00,,,0.00,WUHU21623XXSP,2014-12-21 10:42:00,
2014-12-21 05:47:00,23.9,19.8,30.25,NNW,337,0.0,0.0,84,0.00,,,0.00,WUHU21623XXSP,2014-12-21 10:47:00,
2014-12-21 05:52:00,23.9,19.8,30.25,NNW,337,0.0,0.0,84,0.00,,,0.00,WUHU21623XXSP,2014-12-21 10:52:00,
2014-12-21 05:57:00,24.1,19.9,30.25,NNW,337,0.0,0.0,84,0.00,,,0.00,WUHU21623XXSP,2014-12-21 10:57:00,
2014-12-21 06:02:00,24.1,19.9,30.25,NNW,337,0.0,0.0,84,0.00,,,0.00,WUHU21623XXSP,2014-12-21 11:02:00,
2014-12-21 06:07:00,24.1,19.9,30.25,NNW,337,0.0,0.0,84,0.00,,,0.00,WUHU21623XXSP,2014-12-21 11:07:00,
2014-12-21 06:12:00,24.3,20.1,30.25,NNW,337,0.0,0.0,84,0.00,,,0.00,WUHU21623XXSP,2014-12-21 11:12:00,
2014-12-21 06:17:00,24.3,20.1,30.25,NNW,337,0.0,0.0,84,0.00,,,0.00,WUHU21623XXSP,2014-12-21 11:17:00,
2014-12-21 06:23:00,24.4,20.3,30.25,NNW,337,0.0,0.0,84,0.00,,,0.00,WUHU21623XXSP,2014-12-21 11:23:00,
2014-12-21 06:27:00,24.4,20.3,30.25,NNW,337,0.0,0.0,84,0.00,,,0.00,WUHU21623XXSP,2014-12-21 11:27:00,
2014-12-21 06:33:00,24.4,20.3,30.26,NNW,337,0.0,0.0,84,0.00,,,0.00,WUHU21623XXSP,2014-12-21 11:33:00,
2014-12-21 06:38:00,24.4,20.3,30.25,NNW,337,0.0,0.0,84,0.00,,,0.00,WUHU21623XXSP,2014-12-21 11:38:00,
2014-12-21 06:43:00,24.6,20.5,30.25,NNW,337,0.0,0.0,84,0.00,,,0.00,WUHU21623XXSP,2014-12-21 11:43:00,
2014-12-21 06:48:00,24.6,20.5,30.26,NNW,337,0.0,0.0,84,0.00,,,0.00,WUHU21623XXSP,2014-12-21 11:48:00,
2014-12-21 06:53:00,24.6,20.5,30.25,NNW,337,0.0,0.0,84,0.00,,,0.00,WUHU21623XXSP,2014-12-21 11:53:00,
2014-12-21 06:58:00,24.6,20.5,30.25,NNW,337,0.0,0.0,84,0.00,,,0.00,WUHU21623XXSP,2014-12-21 11:58:00,
2014-12-21 07:03:00,24.6,20.5,30.26,NNW,337,0.0,0.0,84,0.00,,,0.00,WUHU21623XXSP,2014-12-21 12:03:00,
2014-12-21 07:08:00,24.8,20.7,30.26,NNW,337,0.0,0.0,84,0.00,,,0.00,WUHU21623XXSP,2014-12-21 12:08:00,
2014-12-21 07:13:00,25.0,20.7,30.26,NNW,337,0.0,0.0,84,0.00,,,0.00,WUHU21623XXSP,2014-12-21 12:13:00,
2014-12-21 07:18:00,25.0,20.8,30.26,NNW,337,0.0,0.0,84,0.00,,,0.00,WUHU21623XXSP,2014-12-21 12:18:00,
2014-12-21 07:23:00,25.0,20.8,30.26,NNW,337,0.0,0.0,84,0.00,,,0.00,WUHU21623XXSP,2014-12-21 12:23:00,
2014-12-21 07:28:00,25.0,20.8,30.26,NNW,337,0.0,0.0,84,0.00,,,0.00,WUHU21623XXSP,2014-12-21 12:28:00,
2014-12-21 07:33:00,25.0,20.8,30.26,NNW,337,0.0,0.0,84,0.00,,,0.00,WUHU21623XXSP,2014-12-21 12:33:00,
2014-12-21 07:38:00,25.2,21.0,30.26,NNW,337,0.0,0.0,84,0.00,,,0.00,WUHU21623XXSP,2014-12-21 12:38:00,
2014-12-21 07:43:00,25.2,21.0,30.26,NNW,337,0.0,0.0,84,0.00,,,0.00,WUHU21623XXSP,2014-12-21 12:43:00,
2014-12-21 07:48:00,25.2,21.0,30.26,NNW,337,0.0,0.0,84,0.00,,,0.00,WUHU21623XXSP,2014-12-21 12:48:00,
2014-12-21 07:53:00,25.2,21.0,30.25,NNW,337,0.0,0.0,84,0.00,,,0.00,WUHU21623XXSP,2014-12-21 12:53:00,
2014-12-21 07:58:00,25.3,21.2,30.25,NNW,337,0.0,0.0,84,0.00,,,0.00,WUHU21623XXSP,2014-12-21 12:58:00,
2014-12-21 08:03:00,25.3,21.2,30.25,NNW,337,0.0,0.0,84,0.00,,,0.00,WUHU21623XXSP,2014-12-21 13:03:00,
2014-12-21 08:08:00,25.3,21.2,30.25,NNW,337,0.0,0.0,84,0.00,,,0.00,WUHU21623XXSP,2014-12-21 13:08:00,
2014-12-21 08:13:00,25.3,21.2,30.25,NNW,337,0.0,0.0,84,0.00,,,0.00,WUHU21623XXSP,2014-12-21 13:13:00,
2014-12-21 08:18:00,25.5,21.3,30.25,NNW,337,0.0,0.0,84,0.00,,,0.00,WUHU21623XXSP,2014-12-21 13:18:00,
2014-12-21 08:23:00,25.5,21.3,30.25,NNW,337,0.0,0.0,84,0.00,,,0.00,WUHU21623XXSP,2014-12-21 13:23:00,
2014-12-21 08:28:00,25.5,21.3,30.25,NNW,337,0.0,0.0,84,0.00,,,0.00,WUHU21623XXSP,2014-12-21 13:28:00,
2014-12-21 08:33:00,25.5,21.3,30.25,NNW,337,0.0,0.0,84,0.00,,,0.00,WUHU21623XXSP,2014-12-21 13:33:00,
2014-12-21 08:38:00,25.5,21.3,30.25,NNW,337,0.0,0.0,84,0.00,,,0.00,WUHU21623XXSP,2014-12-21 13:38:00,
2014-12-21 08:43:00,25.7,21.5,30.25,NNW,337,0.0,0.0,84,0.00,,,0.00,WUHU21623XXSP,2014-12-21 13:43:00,
2014-12-21 08:48:00,25.9,21.7,30.25,NNW,337,0.0,0.0,84,0.00,,,0.00,WUHU21623XXSP,2014-12-21 13:48:00,
2014-12-21 08:53:00,26.1,21.8,30.25,NNW,337,0.0,0.0,84,0.00,,,0.00,WUHU21623XXSP,2014-12-21 13:53:00,
2014-12-21 08:58:00,26.2,22.0,30.25,NNW,337,0.0,0.0,84,0.00,,,0.00,WUHU21623XXSP,2014-12-21 13:58:00,
2014-12-21 09:03:00,26.2,22.0,30.25,NNW,337,0.0,0.0,84,0.00,,,0.00,WUHU21623XXSP,2014-12-21 14:03:00,
2014-12-21 09:08:00,26.2,22.0,30.25,NNW,337,0.0,0.0,84,0.00,,,0.00,WUHU21623XXSP,2014-12-21 14:08:00,
2014-12-21 09:13:00,26.4,22.2,30.25,NNW,337,0.0,0.0,84,0.00,,,0.00,WUHU21623XXSP,2014-12-21 14:13:00,
2014-12-21 09:18:00,26.4,22.2,30.25,NNW,337,0.0,0.0,84,0.00,,,0.00,WUHU21623XXSP,2014-12-21 14:18:00,
2014-12-21 09:23:00,26.4,22.2,30.25,NNW,337,1.6,1.6,84,0.00,,,0.00,WUHU21623XXSP,2014-12-21 14:23:00,
2014-12-21 09:28:00,26.6,22.2,30.25,NNW,337,0.0,1.6,84,0.00,,,0.00,WUHU21623XXSP,2014-12-21 14:28:00,
2014-12-21 09:33:00,26.8,22.5,30.25,NNW,337,0.0,0.0,84,0.00,,,0.00,WUHU21623XXSP,2014-12-21 14:33:00,
2014-12-21 09:38:00,27.0,22.4,30.25,NNW,337,0.0,0.0,83,0.00,,,0.00,WUHU21623XXSP,2014-12-21 14:38:00,
2014-12-21 09:43:00,27.1,22.6,30.25,NNW,337,0.0,0.0,83,0.00,,,0.00,WUHU21623XXSP,2014-12-21 14:43:00,
2014-12-21 09:48:00,27.1,22.6,30.25,NNW,337,1.1,1.1,83,0.00,,,0.00,WUHU21623XXSP,2014-12-21 14:48:00,
2014-12-21 09:53:00,27.3,22.8,30.25,NNW,337,0.0,1.1,83,0.00,,,0.00,WUHU21623XXSP,2014-12-21 14:53:00,
2014-12-21 09:58:00,27.5,23.0,30.25,NNW,337,0.0,0.0,83,0.00,,,0.00,WUHU21623XXSP,2014-12-21 14:58:00,
2014-12-21 10:03:00,27.7,23.1,30.25,NNW,337,0.0,0.0,82,0.00,,,0.00,WUHU21623XXSP,2014-12-21 15:03:00,
2014-12-21 10:08:00,28.0,23.2,30.25,NNW,337,0.0,0.0,82,0.00,,,0.00,WUHU21623XXSP,2014-12-21 15:08:00,
2014-12-21 10:13:00,28.2,23.2,30.25,NNW,337,0.0,0.0,82,0.00,,,0.00,WUHU21623XXSP,2014-12-21 15:13:00,
2014-12-21 10:18:00,28.4,23.6,30.25,NNW,337,0.0,0.0,82,0.00,,,0.00,WUHU21623XXSP,2014-12-21 15:18:00,
2014-12-21 10:23:00,28.6,23.8,30.25,NNW,337,1.6,1.6,82,0.00,,,0.00,WUHU21623XXSP,2014-12-21 15:23:00,
2014-12-21 10:28:00,28.8,23.9,30.25,NNW,337,0.0,1.6,81,0.00,,,0.00,WUHU21623XXSP,2014-12-21 15:28:00,
2014-12-21 10:33:00,28.9,23.8,30.25,NNW,337,1.6,1.6,81,0.00,,,0.00,WUHU21623XXSP,2014-12-21 15:33:00,
2014-12-21 10:38:00,29.1,24.0,30.25,NNW,337,0.0,1.6,81,0.00,,,0.00,WUHU21623XXSP,2014-12-21 15:38:00,
2014-12-21 10:43:00,29.3,24.2,30.25,NNW,337,0.0,1.6,81,0.00,,,0.00,WUHU21623XXSP,2014-12-21 15:43:00,
2014-12-21 10:48:00,29.3,24.2,30.25,NNW,337,0.0,0.0,81,0.00,,,0.00,WUHU21623XXSP,2014-12-21 15:48:00,
2014-12-21 10:53:00,29.5,24.1,30.26,NNW,337,0.0,0.0,80,0.00,,,0.00,WUHU21623XXSP,2014-12-21 15:53:00,
2014-12-21 10:58:00,29.7,24.3,30.26,NNW,337,0.0,4.3,80,0.00,,,0.00,WUHU21623XXSP,2014-12-21 15:58:00,
2014-12-21 11:04:00,29.8,24.3,30.26,NNW,337,0.0,4.3,80,0.00,,,0.00,WUHU21623XXSP,2014-12-21 16:04:00,
2014-12-21 11:08:00,30.0,24.6,30.26,NNW,337,0.0,0.0,80,0.00,,,0.00,WUHU21623XXSP,2014-12-21 16:08:00,
2014-12-21 11:13:00,30.0,24.3,30.26,NNW,337,0.0,1.1,79,0.00,,,0.00,WUHU21623XXSP,2014-12-21 16:13:00,
2014-12-21 11:19:00,30.0,24.3,30.25,NNW,337,0.0,1.1,79,0.00,,,0.00,WUHU21623XXSP,2014-12-21 16:19:00,
2014-12-21 11:24:00,30.0,24.3,30.25,NNW,337,0.0,0.0,79,0.00,,,0.00,WUHU21623XXSP,2014-12-21 16:24:00,
2014-12-21 11:29:00,30.2,24.5,30.25,NNW,337,0.0,0.0,79,0.00,,,0.00,WUHU21623XXSP,2014-12-21 16:29:00,
2014-12-21 11:34:00,30.4,24.7,30.25,NNW,337,1.3,2.5,79,0.00,,,0.00,WUHU21623XXSP,2014-12-21 16:34:00,
2014-12-21 11:39:00,30.4,24.3,30.25,NNW,337,2.0,2.5,78,0.00,,,0.00,WUHU21623XXSP,2014-12-21 16:39:00,
2014-12-21 11:44:00,30.4,24.3,30.24,NNW,337,0.0,2.0,78,0.00,,,0.00,WUHU21623XXSP,2014-12-21 16:44:00,
2014-12-21 11:49:00,30.4,24.3,30.24,NNW,337,0.0,1.8,78,0.00,,,0.00,WUHU21623XXSP,2014-12-21 16:49:00,
2014-12-21 11:54:00,30.6,24.3,30.24,NNW,337,0.0,0.0,78,0.00,,,0.00,WUHU21623XXSP,2014-12-21 16:54:00,
2014-12-21 11:59:00,30.6,24.5,30.24,NNW,337,4.0,4.0,78,0.00,,,0.00,WUHU21623XXSP,2014-12-21 16:59:00,
2014-12-21 12:04:00,30.7,24.4,30.24,NNW,337,0.0,4.0,77,0.00,,,0.00,WUHU21623XXSP,2014-12-21 17:04:00,
2014-12-21 12:09:00,30.7,24.4,30.24,NNW,337,0.0,2.0,77,0.00,,,0.00,WUHU21623XXSP,2014-12-21 17:09:00,
2014-12-21 12:14:00,30.7,24.4,30.24,NNW,337,0.0,2.0,77,0.00,,,0.00,WUHU21623XXSP,2014-12-21 17:14:00,
2014-12-21 12:19:00,30.7,24.4,30.23,NNW,337,0.0,3.1,77,0.00,,,0.00,WUHU21623XXSP,2014-12-21 17:19:00,
2014-12-21 12:24:00,30.9,24.5,30.23,NNW,337,0.0,3.1,77,0.00,,,0.00,WUHU21623XXSP,2014-12-21 17:24:00,
2014-12-21 12:29:00,30.9,24.4,30.23,SW,225,5.1,5.1,76,0.00,,,0.00,WUHU21623XXSP,2014-12-21 17:29:00,